createdAt,value
2023-03-23T15:59:26.165Z,96896.88
2023-03-23T16:01:59.929Z,96894.98
2023-03-23T16:04:33.885Z,96896.39
2023-03-23T16:07:08.150Z,96901.89
2023-03-23T16:09:42.734Z,96901.21
2023-03-23T16:12:16.221Z,96904.17
2023-03-23T16:14:48.941Z,96901.62
2023-03-23T16:17:23.624Z,96900.43
2023-03-23T16:19:56.879Z,96900.35
2023-03-23T16:22:30.123Z,96905.53
2023-03-23T16:25:02.674Z,96906.50
2023-03-23T16:27:35.342Z,96907.88
2023-03-23T16:30:17.979Z,96905.16
2023-03-23T16:32:51.935Z,96903.27
2023-03-23T16:35:23.545Z,96904.18
2023-03-23T16:38:07.317Z,96902.55
2023-03-23T16:40:43.571Z,96904.02
2023-03-23T16:43:21.396Z,96905.02
2023-03-23T16:45:59.865Z,96906.17
2023-03-23T16:48:32.878Z,96907.73
2023-03-23T16:51:06.917Z,96910.83
2023-03-23T16:53:39.739Z,96906.45
2023-03-23T16:56:12.714Z,96909.05
2023-03-23T16:58:46.096Z,96909.64
2023-03-23T17:01:16.854Z,96912.18
2023-03-23T17:03:55.664Z,96909.78
2023-03-23T17:06:29.666Z,96907.98
2023-03-23T17:09:02.171Z,96910.95
2023-03-23T17:11:36.127Z,96913.89
2023-03-23T17:14:08.570Z,96918.50
2023-03-23T17:16:41.404Z,96920.41
2023-03-23T17:19:14.759Z,96920.59
2023-03-23T17:21:47.316Z,96923.28
2023-03-23T17:24:19.898Z,96920.29
2023-03-23T17:26:52.768Z,96923.09
2023-03-23T17:29:25.737Z,96928.16
2023-03-23T17:31:58.385Z,96928.35
2023-03-23T17:34:31.170Z,96933.58
2023-03-23T17:37:05.126Z,96930.27
2023-03-23T17:39:43.274Z,96930.02
2023-03-23T17:42:16.937Z,96936.23
2023-03-23T17:44:49.594Z,96936.33
2023-03-23T17:47:24.272Z,96933.20
2023-03-23T17:49:56.993Z,96933.94
2023-03-23T17:52:30.056Z,96932.38
2023-03-23T17:55:02.690Z,96938.96
2023-03-23T17:57:35.435Z,96941.48
2023-03-23T18:00:10.930Z,96938.88
2023-03-23T18:02:44.210Z,96945.35
2023-03-23T18:05:16.936Z,96939.30
2023-03-23T18:07:49.577Z,96934.00
2023-03-23T18:10:22.180Z,96933.52
2023-03-23T18:12:55.087Z,96935.36
2023-03-23T18:15:28.325Z,96932.88
2023-03-23T18:18:16.195Z,96932.52
2023-03-23T18:20:48.838Z,96933.15
2023-03-23T18:23:22.868Z,96938.02
2023-03-23T18:25:58.105Z,96935.20
2023-03-23T18:28:32.577Z,96937.59
2023-03-23T18:31:09.636Z,96940.94
2023-03-23T18:33:46.929Z,96944.08
2023-03-23T18:36:21.480Z,96951.15
2023-03-23T18:38:56.479Z,96953.92
2023-03-23T18:41:29.094Z,96956.27
2023-03-23T18:44:02.548Z,96964.12
2023-03-23T18:46:35.451Z,96957.44
2023-03-23T18:49:06.868Z,96950.03
2023-03-23T18:51:39.845Z,96951.27
2023-03-23T18:55:09.188Z,96953.35
2023-03-23T19:10:05.598Z,96975.71
2023-03-23T19:12:38.928Z,96979.34
2023-03-23T19:15:12.770Z,96982.82
2023-03-23T19:17:45.762Z,96989.38
2023-03-23T19:20:37.415Z,96999.41
2023-03-23T19:23:14.617Z,96992.90
2023-03-23T19:25:47.370Z,96988.83
2023-03-23T19:30:58.492Z,96979.94
2023-03-23T19:33:32.750Z,96980.90
2023-03-23T19:36:12.091Z,96981.34
2023-03-23T19:38:47.028Z,96980.85
2023-03-23T19:41:19.752Z,96974.20
2023-03-23T19:43:52.561Z,96970.59
2023-03-23T19:46:26.454Z,96961.43
2023-03-23T19:49:04.024Z,96961.08
2023-03-23T19:51:36.981Z,96966.40
2023-03-23T19:54:10.093Z,96968.73
2023-03-23T19:56:44.379Z,96972.31
2023-03-23T19:59:19.172Z,96976.20
2023-03-23T20:01:56.466Z,96976.70
2023-03-23T20:04:29.916Z,96980.94
2023-03-23T20:07:02.797Z,96985.97
2023-03-23T20:09:35.855Z,96986.26
2023-03-23T20:12:09.835Z,96986.83
2023-03-23T20:14:45.352Z,96984.34
2023-03-23T20:17:20.756Z,96981.34
2023-03-23T20:19:53.627Z,96980.62
2023-03-23T20:22:26.319Z,96978.16
2023-03-23T20:25:00.518Z,96981.64
2023-03-23T20:27:33.663Z,96981.38
2023-03-23T20:30:08.420Z,96981.36
2023-03-23T20:32:42.920Z,96985.03
2023-03-23T20:35:17.069Z,96990.71
2023-03-23T20:37:52.988Z,96996.73
2023-03-23T20:40:30.166Z,96994.23
2023-03-23T20:43:04.070Z,96998.92
2023-03-23T20:45:36.959Z,97008.14
2023-03-23T20:48:10.046Z,97010.42
2023-03-23T20:50:43.107Z,97012.71
2023-03-23T20:53:16.180Z,97013.10
2023-03-23T20:55:48.818Z,97009.20
2023-03-23T20:58:25.538Z,97006.39
2023-03-23T21:00:59.825Z,97008.27
2023-03-23T21:03:35.002Z,97010.56
2023-03-23T21:06:08.547Z,97001.35
2023-03-23T21:08:43.511Z,97001.55
2023-03-23T21:11:21.858Z,97005.12
2023-03-23T21:13:57.527Z,97008.23
2023-03-23T21:16:30.817Z,97006.02
2023-03-23T21:19:04.312Z,97003.30
2023-03-23T21:21:38.034Z,97005.29
2023-03-23T21:24:11.384Z,96999.67
2023-03-23T21:26:44.933Z,96995.80
2023-03-23T21:29:18.089Z,96995.78
2023-03-23T21:32:06.984Z,96999.10
2023-03-23T21:34:41.402Z,97002.01
2023-03-23T21:37:15.670Z,97000.08
2023-03-23T21:39:50.541Z,96998.41
2023-03-23T21:42:30.736Z,96998.66
2023-03-23T21:45:03.961Z,97000.46
2023-03-23T21:47:36.647Z,96999.56
2023-03-23T21:50:12.201Z,97000.44
2023-03-23T21:52:45.434Z,96998.93
2023-03-23T21:55:18.389Z,96998.98
2023-03-23T21:57:50.950Z,96997.45
2023-03-23T22:00:27.333Z,96997.33
2023-03-23T22:03:00.100Z,96999.14
2023-03-23T22:05:33.460Z,97002.43
2023-03-23T22:08:07.303Z,97004.35
2023-03-23T22:11:00.740Z,97002.55
2023-03-23T22:13:36.057Z,97007.49
2023-03-23T22:16:10.970Z,97007.98
2023-03-23T22:18:45.651Z,97011.19
2023-03-23T22:21:19.819Z,97015.15
2023-03-23T22:23:53.449Z,97013.08
2023-03-23T22:26:27.548Z,97013.32
2023-03-23T22:29:01.739Z,97014.65
2023-03-23T22:31:36.897Z,97014.86
2023-03-23T22:34:09.951Z,97019.37
2023-03-23T22:36:43.694Z,97013.02
2023-03-23T22:39:16.391Z,97014.75
2023-03-23T22:41:49.727Z,97012.96
2023-03-23T22:44:22.817Z,97011.27
2023-03-23T22:46:55.525Z,97010.38
2023-03-23T22:49:28.505Z,97005.24
2023-03-23T22:52:01.780Z,97005.27
2023-03-23T22:54:34.613Z,97009.92
2023-03-23T22:57:07.762Z,97011.24
2023-03-23T22:59:41.359Z,97006.17
2023-03-23T23:02:12.520Z,97009.23
2023-03-23T23:04:45.283Z,97010.25
2023-03-23T23:07:18.420Z,97010.71
2023-03-23T23:09:51.778Z,97010.67
2023-03-23T23:12:26.201Z,97007.60
2023-03-23T23:14:59.886Z,97004.39
2023-03-23T23:17:32.454Z,97008.17
2023-03-23T23:20:07.535Z,97011.58
2023-03-23T23:22:40.463Z,97013.79
2023-03-23T23:25:13.229Z,97012.88
2023-03-23T23:27:46.349Z,97012.88
2023-03-23T23:30:20.158Z,97010.88
2023-03-23T23:32:53.144Z,97011.02
2023-03-23T23:35:26.669Z,97009.48
2023-03-23T23:37:59.560Z,97007.61
2023-03-23T23:40:33.458Z,97008.37
2023-03-23T23:43:07.257Z,97011.00
2023-03-23T23:45:40.365Z,97017.96
2023-03-23T23:48:13.868Z,97015.23
2023-03-23T23:50:46.938Z,97015.11
2023-03-23T23:53:26.028Z,97015.45
2023-03-23T23:55:58.682Z,97017.36
2023-03-23T23:58:31.846Z,97015.66
